RYR5UT LCPH-LZIB
Flight info
| Callsign | RYR5UT |
|---|---|
| Flight time | 2h 49m |
| Altitude | 36000 |
| Route | GENOS DCT PEDER DCT LUTIG DCT BENEM UN127 RIKSO DCT LMO DCT EVIVI DCT OKANA DCT TONDO DCT JOZEP DCT PUCOG DCT BODZA DCT XOMBA |
| Aircraft | B38M/M-SDE1FGHILORVWXY/HB1 |
Departure
| Time | 2026-05-06 13:47 |
|---|---|
| Airport | Paphos International Airport (LCPH) |
Arrival
| Time | 2026-05-06 16:36 |
|---|---|
| Airport | M. R. Štefánik Airport (LZIB) |
| Time | Latitude | Longitude | Altitude | Speed | Heading |
|---|---|---|---|---|---|
| 2026-05-06 13:26 | 34.71265 | 32.48491 | 48 ft | 0 kts | 200° |
| 2026-05-06 13:39 | 34.71288 | 32.48499 | 46 ft | 4 kts | 190° |
| 2026-05-06 13:39 | 34.71314 | 32.48501 | 48 ft | 4 kts | 166° |
| 2026-05-06 13:39 | 34.71332 | 32.48488 | 46 ft | 4 kts | 109° |
| 2026-05-06 13:39 | 34.71332 | 32.48474 | 48 ft | 1 kts | 65° |
| 2026-05-06 13:40 | 34.71331 | 32.48472 | 48 ft | 0 kts | 65° |
| 2026-05-06 13:43 | 34.71334 | 32.48479 | 48 ft | 3 kts | 65° |
| 2026-05-06 13:43 | 34.71357 | 32.48541 | 48 ft | 14 kts | 65° |
| 2026-05-06 13:44 | 34.71403 | 32.48665 | 47 ft | 17 kts | 64° |
| 2026-05-06 13:44 | 34.71466 | 32.48825 | 48 ft | 25 kts | 66° |
| 2026-05-06 13:44 | 34.71565 | 32.48985 | 49 ft | 24 kts | 21° |
| 2026-05-06 13:44 | 34.71628 | 32.49108 | 46 ft | 18 kts | 114° |
| 2026-05-06 13:45 | 34.71577 | 32.49273 | 47 ft | 25 kts | 110° |
| 2026-05-06 13:45 | 34.71473 | 32.49619 | 46 ft | 17 kts | 110° |
| 2026-05-06 13:45 | 34.71394 | 32.49766 | 43 ft | 25 kts | 145° |
| 2026-05-06 13:46 | 34.71387 | 32.49848 | 47 ft | 10 kts | 10° |
| 2026-05-06 13:46 | 34.71420 | 32.49793 | 46 ft | 10 kts | 286° |
| 2026-05-06 13:46 | 34.71473 | 32.49615 | 46 ft | 49 kts | 290° |
| 2026-05-06 13:46 | 34.71672 | 32.48957 | 47 ft | 116 kts | 290° |
| 2026-05-06 13:47 | 34.72026 | 32.47815 | 71 ft | 168 kts | 289° |
| 2026-05-06 13:47 | 34.72439 | 32.46447 | 653 ft | 174 kts | 287° |
| 2026-05-06 13:47 | 34.72720 | 32.45016 | 1417 ft | 175 kts | 272° |
| 2026-05-06 13:47 | 34.72528 | 32.43521 | 1962 ft | 192 kts | 254° |
| 2026-05-06 13:48 | 34.72127 | 32.41884 | 2527 ft | 211 kts | 252° |
| 2026-05-06 13:48 | 34.71650 | 32.40129 | 3257 ft | 225 kts | 251° |
| 2026-05-06 13:48 | 34.71156 | 32.38233 | 3902 ft | 243 kts | 252° |
| 2026-05-06 13:48 | 34.70656 | 32.36224 | 4591 ft | 259 kts | 253° |
| 2026-05-06 13:49 | 34.70137 | 32.34084 | 5403 ft | 267 kts | 253° |
| 2026-05-06 13:49 | 34.69614 | 32.31908 | 6378 ft | 271 kts | 254° |
| 2026-05-06 13:49 | 34.69082 | 32.29673 | 7265 ft | 276 kts | 254° |
| 2026-05-06 13:49 | 34.68552 | 32.27440 | 8161 ft | 279 kts | 254° |
| 2026-05-06 13:50 | 34.68007 | 32.25142 | 8988 ft | 285 kts | 255° |
| 2026-05-06 13:50 | 34.67576 | 32.22763 | 9812 ft | 289 kts | 270° |
| 2026-05-06 13:50 | 34.67952 | 32.20388 | 10612 ft | 292 kts | 294° |
| 2026-05-06 13:50 | 34.68953 | 32.18155 | 11025 ft | 310 kts | 296° |
| 2026-05-06 13:51 | 34.69837 | 32.15719 | 11332 ft | 329 kts | 293° |
| 2026-05-06 13:51 | 34.70777 | 32.13112 | 11788 ft | 342 kts | 294° |
| 2026-05-06 13:51 | 34.71755 | 32.10451 | 12545 ft | 343 kts | 294° |
| 2026-05-06 13:51 | 34.72745 | 32.07794 | 13277 ft | 346 kts | 294° |
| 2026-05-06 13:52 | 34.73750 | 32.05117 | 13954 ft | 349 kts | 294° |
| 2026-05-06 13:52 | 34.74768 | 32.02413 | 14649 ft | 352 kts | 294° |
| 2026-05-06 13:52 | 34.75783 | 31.99722 | 15301 ft | 354 kts | 294° |
| 2026-05-06 13:52 | 34.76819 | 31.96977 | 15942 ft | 356 kts | 295° |
| 2026-05-06 13:53 | 34.77854 | 31.94229 | 16584 ft | 357 kts | 295° |
| 2026-05-06 13:53 | 34.78881 | 31.91504 | 17164 ft | 360 kts | 294° |
| 2026-05-06 13:53 | 34.79927 | 31.88723 | 17743 ft | 362 kts | 294° |
| 2026-05-06 13:53 | 34.80982 | 31.85918 | 18289 ft | 365 kts | 294° |
| 2026-05-06 13:54 | 34.82040 | 31.83100 | 18848 ft | 366 kts | 294° |
| 2026-05-06 13:54 | 34.83103 | 31.80269 | 19336 ft | 370 kts | 294° |
| 2026-05-06 13:54 | 34.84175 | 31.77411 | 19843 ft | 372 kts | 294° |
| 2026-05-06 13:54 | 34.85248 | 31.74548 | 20351 ft | 373 kts | 294° |
| 2026-05-06 13:55 | 34.86328 | 31.71664 | 20822 ft | 376 kts | 294° |
| 2026-05-06 13:55 | 34.87414 | 31.68759 | 21304 ft | 378 kts | 294° |
| 2026-05-06 13:55 | 34.88505 | 31.65842 | 21786 ft | 379 kts | 294° |
| 2026-05-06 13:55 | 34.89603 | 31.62904 | 22196 ft | 382 kts | 294° |
| 2026-05-06 13:56 | 34.90706 | 31.59946 | 22681 ft | 384 kts | 294° |
| 2026-05-06 13:56 | 34.91813 | 31.56976 | 23111 ft | 387 kts | 294° |
| 2026-05-06 13:56 | 34.92923 | 31.53995 | 23573 ft | 388 kts | 294° |
| 2026-05-06 13:56 | 34.94042 | 31.50988 | 24022 ft | 390 kts | 294° |
| 2026-05-06 13:57 | 34.95169 | 31.47959 | 24448 ft | 392 kts | 294° |
| 2026-05-06 13:57 | 34.96285 | 31.44955 | 24851 ft | 395 kts | 294° |
| 2026-05-06 13:57 | 34.97421 | 31.41892 | 25248 ft | 397 kts | 294° |
| 2026-05-06 13:57 | 34.98562 | 31.38815 | 25634 ft | 399 kts | 294° |
| 2026-05-06 13:58 | 34.99711 | 31.35714 | 26022 ft | 401 kts | 293° |
| 2026-05-06 13:58 | 35.00863 | 31.32600 | 26394 ft | 403 kts | 294° |
| 2026-05-06 13:58 | 35.02025 | 31.29457 | 26762 ft | 405 kts | 293° |
| 2026-05-06 13:58 | 35.03188 | 31.26309 | 27119 ft | 407 kts | 293° |
| 2026-05-06 13:59 | 35.04342 | 31.23184 | 27451 ft | 410 kts | 293° |
| 2026-05-06 13:59 | 35.05516 | 31.19999 | 27786 ft | 412 kts | 293° |
| 2026-05-06 13:59 | 35.06699 | 31.16784 | 28134 ft | 413 kts | 293° |
| 2026-05-06 13:59 | 35.07883 | 31.13567 | 28457 ft | 415 kts | 293° |
| 2026-05-06 14:00 | 35.09053 | 31.10384 | 28755 ft | 417 kts | 293° |
| 2026-05-06 14:00 | 35.10247 | 31.07134 | 29085 ft | 419 kts | 293° |
| 2026-05-06 14:00 | 35.11446 | 31.03866 | 29380 ft | 421 kts | 293° |
| 2026-05-06 14:00 | 35.12630 | 31.00636 | 29677 ft | 422 kts | 293° |
| 2026-05-06 14:01 | 35.13830 | 30.97355 | 30036 ft | 422 kts | 293° |
| 2026-05-06 14:01 | 35.15029 | 30.94078 | 30439 ft | 421 kts | 293° |
| 2026-05-06 14:01 | 35.16225 | 30.90804 | 30825 ft | 420 kts | 293° |
| 2026-05-06 14:01 | 35.17418 | 30.87541 | 31196 ft | 419 kts | 294° |
| 2026-05-06 14:02 | 35.18728 | 30.84351 | 31556 ft | 419 kts | 296° |
| 2026-05-06 14:02 | 35.20032 | 30.81213 | 31912 ft | 418 kts | 296° |
| 2026-05-06 14:02 | 35.21343 | 30.78028 | 32248 ft | 418 kts | 296° |
| 2026-05-06 14:02 | 35.22646 | 30.74849 | 32565 ft | 418 kts | 296° |
| 2026-05-06 14:03 | 35.23948 | 30.71667 | 32908 ft | 417 kts | 296° |
| 2026-05-06 14:03 | 35.24807 | 30.69567 | 33116 ft | 417 kts | 296° |
| 2026-05-06 14:03 | 35.26521 | 30.65369 | 33564 ft | 415 kts | 296° |
| 2026-05-06 14:03 | 35.27815 | 30.62198 | 33874 ft | 415 kts | 296° |
| 2026-05-06 14:04 | 35.28672 | 30.60097 | 34072 ft | 414 kts | 296° |
| 2026-05-06 14:04 | 35.29961 | 30.56933 | 34382 ft | 414 kts | 296° |
| 2026-05-06 14:04 | 35.31232 | 30.53807 | 34669 ft | 414 kts | 296° |
| 2026-05-06 14:04 | 35.32516 | 30.50650 | 34949 ft | 413 kts | 296° |
| 2026-05-06 14:05 | 35.33801 | 30.47488 | 35183 ft | 414 kts | 296° |
| 2026-05-06 14:05 | 35.35087 | 30.44318 | 35415 ft | 414 kts | 296° |
| 2026-05-06 14:05 | 35.36370 | 30.41153 | 35660 ft | 414 kts | 296° |
| 2026-05-06 14:05 | 35.37635 | 30.38029 | 35883 ft | 414 kts | 296° |
| 2026-05-06 14:06 | 35.38917 | 30.34861 | 36049 ft | 415 kts | 296° |
| 2026-05-06 14:06 | 35.40202 | 30.31684 | 36053 ft | 414 kts | 296° |
| 2026-05-06 14:06 | 35.42751 | 30.25368 | 36061 ft | 413 kts | 296° |
| 2026-05-06 14:07 | 35.45281 | 30.19089 | 36056 ft | 413 kts | 296° |
| 2026-05-06 14:07 | 35.47830 | 30.12749 | 36053 ft | 413 kts | 296° |
| 2026-05-06 14:08 | 35.50348 | 30.06477 | 36054 ft | 413 kts | 296° |
| 2026-05-06 14:08 | 35.53119 | 30.00326 | 36026 ft | 413 kts | 310° |
| 2026-05-06 14:09 | 35.57382 | 29.95525 | 36028 ft | 416 kts | 316° |
| 2026-05-06 14:09 | 35.61766 | 29.90889 | 36057 ft | 416 kts | 317° |
| 2026-05-06 14:10 | 35.66163 | 29.86312 | 36052 ft | 416 kts | 317° |
| 2026-05-06 14:10 | 35.70598 | 29.81703 | 36054 ft | 416 kts | 317° |
| 2026-05-06 14:11 | 35.74995 | 29.77127 | 36055 ft | 416 kts | 317° |
| 2026-05-06 14:11 | 35.79417 | 29.72520 | 36052 ft | 416 kts | 317° |
| 2026-05-06 14:12 | 35.83840 | 29.67904 | 36063 ft | 416 kts | 317° |
| 2026-05-06 14:12 | 35.88228 | 29.63318 | 36056 ft | 416 kts | 317° |
| 2026-05-06 14:13 | 35.92643 | 29.58697 | 36060 ft | 416 kts | 317° |
| 2026-05-06 14:13 | 35.97062 | 29.54065 | 36058 ft | 416 kts | 317° |
| 2026-05-06 14:14 | 36.01475 | 29.49431 | 36053 ft | 416 kts | 317° |
| 2026-05-06 14:14 | 36.05865 | 29.44816 | 36050 ft | 416 kts | 317° |
| 2026-05-06 14:15 | 36.10281 | 29.40164 | 36049 ft | 417 kts | 317° |
| 2026-05-06 14:15 | 36.14670 | 29.35536 | 36060 ft | 416 kts | 317° |
| 2026-05-06 14:16 | 36.19086 | 29.30888 | 36052 ft | 415 kts | 318° |
| 2026-05-06 14:16 | 36.23494 | 29.26270 | 36062 ft | 415 kts | 318° |
| 2026-05-06 14:17 | 36.27892 | 29.21652 | 36049 ft | 414 kts | 318° |
| 2026-05-06 14:17 | 36.32294 | 29.17026 | 36050 ft | 414 kts | 318° |
| 2026-05-06 14:18 | 36.36691 | 29.12399 | 36055 ft | 414 kts | 318° |
| 2026-05-06 14:18 | 36.41063 | 29.07791 | 36051 ft | 414 kts | 318° |
| 2026-05-06 14:19 | 36.45456 | 29.03154 | 36050 ft | 413 kts | 318° |
| 2026-05-06 14:19 | 36.49819 | 28.98543 | 36058 ft | 413 kts | 318° |
| 2026-05-06 14:20 | 36.54200 | 28.93904 | 36042 ft | 413 kts | 318° |
| 2026-05-06 14:20 | 36.58579 | 28.89261 | 36041 ft | 413 kts | 318° |
| 2026-05-06 14:21 | 36.62926 | 28.84644 | 36039 ft | 413 kts | 318° |
| 2026-05-06 14:21 | 36.67301 | 28.79991 | 36044 ft | 413 kts | 318° |
| 2026-05-06 14:22 | 36.71686 | 28.75345 | 36041 ft | 412 kts | 318° |
| 2026-05-06 14:22 | 36.76036 | 28.70734 | 36040 ft | 413 kts | 318° |
| 2026-05-06 14:23 | 36.80411 | 28.66089 | 36045 ft | 413 kts | 318° |
| 2026-05-06 14:23 | 36.84784 | 28.61439 | 36051 ft | 412 kts | 318° |
| 2026-05-06 14:24 | 36.89134 | 28.56805 | 36048 ft | 413 kts | 318° |
| 2026-05-06 14:24 | 36.93516 | 28.52132 | 36062 ft | 412 kts | 318° |
| 2026-05-06 14:25 | 36.97853 | 28.47498 | 36058 ft | 412 kts | 318° |
| 2026-05-06 14:25 | 37.02218 | 28.42827 | 36052 ft | 412 kts | 318° |
| 2026-05-06 14:26 | 37.06566 | 28.38167 | 36053 ft | 413 kts | 318° |
| 2026-05-06 14:26 | 37.10921 | 28.33459 | 36047 ft | 412 kts | 318° |
| 2026-05-06 14:27 | 37.15274 | 28.28749 | 36050 ft | 413 kts | 318° |
| 2026-05-06 14:27 | 37.19640 | 28.24046 | 36053 ft | 413 kts | 318° |
| 2026-05-06 14:28 | 37.23963 | 28.19380 | 36048 ft | 412 kts | 318° |
| 2026-05-06 14:28 | 37.28320 | 28.14671 | 36044 ft | 412 kts | 318° |
| 2026-05-06 14:29 | 37.32667 | 28.09943 | 36036 ft | 413 kts | 318° |
| 2026-05-06 14:29 | 37.37018 | 28.05198 | 36058 ft | 414 kts | 318° |
| 2026-05-06 14:30 | 37.41356 | 28.00459 | 36037 ft | 414 kts | 318° |
| 2026-05-06 14:30 | 37.45704 | 27.95701 | 36058 ft | 413 kts | 318° |
| 2026-05-06 14:31 | 37.50017 | 27.90975 | 36041 ft | 411 kts | 318° |
| 2026-05-06 14:31 | 37.54313 | 27.86259 | 36034 ft | 411 kts | 318° |
| 2026-05-06 14:32 | 37.58633 | 27.81511 | 36037 ft | 412 kts | 318° |
| 2026-05-06 14:32 | 37.62969 | 27.76735 | 36036 ft | 412 kts | 318° |
| 2026-05-06 14:33 | 37.67270 | 27.71992 | 36036 ft | 412 kts | 318° |
| 2026-05-06 14:33 | 37.71595 | 27.67215 | 36038 ft | 412 kts | 318° |
| 2026-05-06 14:34 | 37.75909 | 27.62441 | 36031 ft | 412 kts | 318° |
| 2026-05-06 14:34 | 37.80199 | 27.57686 | 36042 ft | 412 kts | 318° |
| 2026-05-06 14:35 | 37.84506 | 27.52906 | 36049 ft | 411 kts | 318° |
| 2026-05-06 14:35 | 37.88816 | 27.48130 | 36067 ft | 411 kts | 319° |
| 2026-05-06 14:36 | 37.93148 | 27.43384 | 36063 ft | 411 kts | 319° |
| 2026-05-06 14:36 | 37.97442 | 27.38671 | 36071 ft | 410 kts | 319° |
| 2026-05-06 14:37 | 38.01757 | 27.33926 | 36074 ft | 410 kts | 319° |
| 2026-05-06 14:37 | 38.06074 | 27.29167 | 36074 ft | 411 kts | 319° |
| 2026-05-06 14:38 | 38.10359 | 27.24440 | 36066 ft | 410 kts | 319° |
| 2026-05-06 14:38 | 38.14660 | 27.19685 | 36060 ft | 409 kts | 319° |
| 2026-05-06 14:39 | 38.18948 | 27.14937 | 36050 ft | 409 kts | 319° |
| 2026-05-06 14:39 | 38.23235 | 27.10183 | 36050 ft | 408 kts | 319° |
| 2026-05-06 14:40 | 38.27514 | 27.05430 | 36041 ft | 408 kts | 319° |
| 2026-05-06 14:40 | 38.31789 | 27.00685 | 36049 ft | 407 kts | 319° |
| 2026-05-06 14:41 | 38.36081 | 26.95955 | 36055 ft | 407 kts | 319° |
| 2026-05-06 14:41 | 38.38219 | 26.93592 | 35948 ft | 410 kts | 319° |
| 2026-05-06 14:41 | 38.40382 | 26.91205 | 36075 ft | 409 kts | 319° |
| 2026-05-06 14:42 | 38.44661 | 26.86470 | 36043 ft | 406 kts | 319° |
| 2026-05-06 14:42 | 38.48894 | 26.81780 | 36054 ft | 406 kts | 319° |
| 2026-05-06 14:43 | 38.53199 | 26.77002 | 36186 ft | 410 kts | 319° |
| 2026-05-06 14:43 | 38.55347 | 26.74616 | 36083 ft | 406 kts | 319° |
| 2026-05-06 14:43 | 38.57460 | 26.72265 | 36044 ft | 401 kts | 319° |
| 2026-05-06 14:44 | 38.61669 | 26.67579 | 36057 ft | 401 kts | 319° |
| 2026-05-06 14:45 | 38.67964 | 26.60555 | 36059 ft | 400 kts | 319° |
| 2026-05-06 14:45 | 38.72163 | 26.55859 | 36039 ft | 401 kts | 319° |
| 2026-05-06 14:46 | 38.76383 | 26.51133 | 36064 ft | 404 kts | 319° |
| 2026-05-06 14:46 | 38.80610 | 26.46394 | 36065 ft | 403 kts | 319° |
| 2026-05-06 14:47 | 38.84874 | 26.41710 | 36067 ft | 403 kts | 320° |
| 2026-05-06 14:47 | 38.88451 | 26.37856 | 36084 ft | 403 kts | 320° |
| 2026-05-06 14:48 | 38.92743 | 26.33215 | 36069 ft | 403 kts | 320° |
| 2026-05-06 14:48 | 38.97723 | 26.27819 | 36068 ft | 403 kts | 320° |
| 2026-05-06 14:49 | 39.01318 | 26.23916 | 36057 ft | 404 kts | 320° |
| 2026-05-06 14:49 | 39.05622 | 26.19238 | 36070 ft | 405 kts | 320° |
| 2026-05-06 14:50 | 39.09896 | 26.14584 | 36077 ft | 405 kts | 320° |
| 2026-05-06 14:50 | 39.14198 | 26.09894 | 36061 ft | 405 kts | 320° |
| 2026-05-06 14:51 | 39.18502 | 26.05191 | 36090 ft | 405 kts | 320° |
| 2026-05-06 14:51 | 39.22801 | 26.00487 | 36073 ft | 404 kts | 320° |
| 2026-05-06 14:52 | 39.27089 | 25.95787 | 36073 ft | 404 kts | 320° |
| 2026-05-06 14:52 | 39.31391 | 25.91064 | 36074 ft | 407 kts | 320° |
| 2026-05-06 14:53 | 39.35676 | 25.86351 | 36067 ft | 407 kts | 320° |
| 2026-05-06 14:53 | 39.39985 | 25.81604 | 36070 ft | 407 kts | 320° |
| 2026-05-06 14:54 | 39.44293 | 25.76852 | 36080 ft | 407 kts | 320° |
| 2026-05-06 14:54 | 39.48600 | 25.72091 | 36068 ft | 407 kts | 320° |
| 2026-05-06 14:55 | 39.52907 | 25.67323 | 36065 ft | 407 kts | 320° |
| 2026-05-06 14:55 | 39.57212 | 25.62548 | 36053 ft | 408 kts | 319° |
| 2026-05-06 14:56 | 39.61524 | 25.57758 | 36067 ft | 409 kts | 319° |
| 2026-05-06 14:56 | 39.65837 | 25.52958 | 36067 ft | 408 kts | 319° |
| 2026-05-06 14:57 | 39.70131 | 25.48172 | 36061 ft | 409 kts | 319° |
| 2026-05-06 14:57 | 39.74413 | 25.43391 | 36063 ft | 408 kts | 319° |
| 2026-05-06 14:58 | 39.78723 | 25.38570 | 36062 ft | 408 kts | 319° |
| 2026-05-06 14:58 | 39.83028 | 25.33746 | 36062 ft | 408 kts | 319° |
| 2026-05-06 14:59 | 39.87342 | 25.28907 | 36049 ft | 409 kts | 319° |
| 2026-05-06 14:59 | 39.91652 | 25.24049 | 36045 ft | 410 kts | 318° |
| 2026-05-06 15:00 | 39.95869 | 25.19117 | 36046 ft | 410 kts | 318° |
| 2026-05-06 15:00 | 40.00111 | 25.14164 | 36048 ft | 409 kts | 318° |
| 2026-05-06 15:01 | 40.04361 | 25.09197 | 36051 ft | 409 kts | 318° |
| 2026-05-06 15:01 | 40.08604 | 25.04230 | 36056 ft | 410 kts | 318° |
| 2026-05-06 15:02 | 40.12847 | 24.99252 | 36039 ft | 411 kts | 317° |
| 2026-05-06 15:02 | 40.17109 | 24.94244 | 36053 ft | 412 kts | 317° |
| 2026-05-06 15:03 | 40.21369 | 24.89230 | 36054 ft | 412 kts | 317° |
| 2026-05-06 15:03 | 40.25628 | 24.84208 | 36056 ft | 412 kts | 317° |
| 2026-05-06 15:04 | 40.29886 | 24.79178 | 36055 ft | 412 kts | 317° |
| 2026-05-06 15:04 | 40.34142 | 24.74141 | 36053 ft | 412 kts | 317° |
| 2026-05-06 15:05 | 40.38373 | 24.69126 | 36050 ft | 412 kts | 317° |
| 2026-05-06 15:05 | 40.42622 | 24.64080 | 36051 ft | 412 kts | 317° |
| 2026-05-06 15:06 | 40.46872 | 24.59024 | 36047 ft | 412 kts | 317° |
| 2026-05-06 15:06 | 40.51116 | 24.53966 | 36044 ft | 412 kts | 317° |
| 2026-05-06 15:07 | 40.55360 | 24.48899 | 36051 ft | 412 kts | 317° |
| 2026-05-06 15:07 | 40.59595 | 24.43834 | 36042 ft | 411 kts | 317° |
| 2026-05-06 15:08 | 40.63826 | 24.38764 | 36042 ft | 411 kts | 317° |
| 2026-05-06 15:08 | 40.68047 | 24.33697 | 36045 ft | 414 kts | 317° |
| 2026-05-06 15:09 | 40.72312 | 24.28569 | 36043 ft | 414 kts | 317° |
| 2026-05-06 15:09 | 40.76569 | 24.23440 | 36037 ft | 414 kts | 317° |
| 2026-05-06 15:10 | 40.80828 | 24.18300 | 36039 ft | 415 kts | 317° |
| 2026-05-06 15:10 | 40.85084 | 24.13154 | 36038 ft | 415 kts | 317° |
| 2026-05-06 15:11 | 40.89340 | 24.08000 | 36020 ft | 416 kts | 317° |
| 2026-05-06 15:11 | 40.93615 | 24.02811 | 36051 ft | 418 kts | 317° |
| 2026-05-06 15:12 | 40.97862 | 23.97648 | 36026 ft | 417 kts | 317° |
| 2026-05-06 15:12 | 41.02134 | 23.92445 | 36023 ft | 417 kts | 317° |
| 2026-05-06 15:13 | 41.06404 | 23.87235 | 36014 ft | 417 kts | 317° |
| 2026-05-06 15:13 | 41.10682 | 23.82006 | 36016 ft | 417 kts | 317° |
| 2026-05-06 15:14 | 41.14949 | 23.76779 | 36017 ft | 418 kts | 317° |
| 2026-05-06 15:14 | 41.19228 | 23.71529 | 36028 ft | 419 kts | 316° |
| 2026-05-06 15:15 | 41.23508 | 23.66267 | 36005 ft | 419 kts | 316° |
| 2026-05-06 15:15 | 41.27764 | 23.61027 | 36012 ft | 419 kts | 316° |
| 2026-05-06 15:16 | 41.32038 | 23.55755 | 36010 ft | 419 kts | 316° |
| 2026-05-06 15:16 | 41.36305 | 23.50482 | 36010 ft | 419 kts | 316° |
| 2026-05-06 15:17 | 41.40722 | 23.45439 | 36000 ft | 419 kts | 329° |
| 2026-05-06 15:17 | 41.45938 | 23.41938 | 35987 ft | 421 kts | 331° |
| 2026-05-06 15:18 | 41.51207 | 23.38446 | 36024 ft | 424 kts | 332° |
| 2026-05-06 15:18 | 41.56458 | 23.35010 | 36025 ft | 423 kts | 332° |
| 2026-05-06 15:19 | 41.61748 | 23.31549 | 36029 ft | 423 kts | 332° |
| 2026-05-06 15:19 | 41.67039 | 23.28082 | 36026 ft | 423 kts | 332° |
| 2026-05-06 15:20 | 41.72333 | 23.24605 | 36026 ft | 423 kts | 332° |
| 2026-05-06 15:20 | 41.77616 | 23.21129 | 36026 ft | 423 kts | 332° |
| 2026-05-06 15:21 | 41.82899 | 23.17647 | 36038 ft | 423 kts | 332° |
| 2026-05-06 15:21 | 41.88146 | 23.14183 | 36032 ft | 423 kts | 332° |
| 2026-05-06 15:22 | 41.93434 | 23.10685 | 36033 ft | 423 kts | 332° |
| 2026-05-06 15:22 | 41.98735 | 23.07172 | 36022 ft | 425 kts | 332° |
| 2026-05-06 15:23 | 42.04045 | 23.03646 | 36013 ft | 425 kts | 332° |
| 2026-05-06 15:23 | 42.09339 | 23.00124 | 36012 ft | 424 kts | 331° |
| 2026-05-06 15:24 | 42.14636 | 22.96594 | 36008 ft | 425 kts | 331° |
| 2026-05-06 15:24 | 42.19934 | 22.93056 | 36010 ft | 425 kts | 332° |
| 2026-05-06 15:25 | 42.25227 | 22.89515 | 36005 ft | 425 kts | 331° |
| 2026-05-06 15:25 | 42.30487 | 22.85990 | 36005 ft | 425 kts | 331° |
| 2026-05-06 15:26 | 42.35783 | 22.82432 | 36011 ft | 425 kts | 331° |
| 2026-05-06 15:26 | 42.41079 | 22.78871 | 35994 ft | 425 kts | 331° |
| 2026-05-06 15:27 | 42.46384 | 22.75295 | 35998 ft | 427 kts | 331° |
| 2026-05-06 15:27 | 42.51701 | 22.71705 | 36004 ft | 427 kts | 331° |
| 2026-05-06 15:28 | 42.57018 | 22.68107 | 35987 ft | 426 kts | 331° |
| 2026-05-06 15:28 | 42.62337 | 22.64500 | 35997 ft | 427 kts | 331° |
| 2026-05-06 15:29 | 42.67646 | 22.60895 | 35998 ft | 427 kts | 331° |
| 2026-05-06 15:29 | 42.72958 | 22.57280 | 36002 ft | 427 kts | 331° |
| 2026-05-06 15:30 | 42.78266 | 22.53662 | 35995 ft | 427 kts | 331° |
| 2026-05-06 15:30 | 42.83548 | 22.50055 | 35983 ft | 428 kts | 330° |
| 2026-05-06 15:31 | 42.88563 | 22.45693 | 35991 ft | 427 kts | 324° |
| 2026-05-06 15:31 | 42.93501 | 22.41170 | 35981 ft | 427 kts | 323° |
| 2026-05-06 15:32 | 43.00881 | 22.34376 | 35970 ft | 426 kts | 324° |
| 2026-05-06 15:32 | 43.05804 | 22.29831 | 35962 ft | 427 kts | 323° |
| 2026-05-06 15:33 | 43.10711 | 22.25293 | 35960 ft | 429 kts | 323° |
| 2026-05-06 15:33 | 43.15648 | 22.20717 | 35950 ft | 428 kts | 323° |
| 2026-05-06 15:34 | 43.20583 | 22.16135 | 35949 ft | 428 kts | 323° |
| 2026-05-06 15:34 | 43.25509 | 22.11552 | 35946 ft | 428 kts | 323° |
| 2026-05-06 15:35 | 43.30443 | 22.06951 | 35941 ft | 429 kts | 323° |
| 2026-05-06 15:35 | 43.34554 | 22.03112 | 35938 ft | 430 kts | 323° |
| 2026-05-06 15:36 | 43.39493 | 21.98491 | 35941 ft | 429 kts | 323° |
| 2026-05-06 15:36 | 43.45231 | 21.93110 | 35937 ft | 430 kts | 323° |
| 2026-05-06 15:37 | 43.49367 | 21.89223 | 35943 ft | 430 kts | 323° |
| 2026-05-06 15:37 | 43.54271 | 21.84607 | 35941 ft | 430 kts | 323° |
| 2026-05-06 15:38 | 43.59209 | 21.79949 | 35941 ft | 429 kts | 323° |
| 2026-05-06 15:38 | 43.64149 | 21.75280 | 35941 ft | 430 kts | 323° |
| 2026-05-06 15:39 | 43.69082 | 21.70608 | 35931 ft | 428 kts | 323° |
| 2026-05-06 15:39 | 43.73974 | 21.65965 | 35931 ft | 430 kts | 323° |
| 2026-05-06 15:40 | 43.78894 | 21.61286 | 35948 ft | 430 kts | 323° |
| 2026-05-06 15:40 | 43.83834 | 21.56579 | 35922 ft | 430 kts | 323° |
| 2026-05-06 15:41 | 43.88765 | 21.51870 | 35928 ft | 430 kts | 323° |
| 2026-05-06 15:41 | 43.93688 | 21.47161 | 35944 ft | 429 kts | 323° |
| 2026-05-06 15:42 | 43.98586 | 21.42464 | 35935 ft | 431 kts | 323° |
| 2026-05-06 15:42 | 44.03527 | 21.37717 | 35921 ft | 431 kts | 323° |
| 2026-05-06 15:43 | 44.08457 | 21.32971 | 35929 ft | 431 kts | 323° |
| 2026-05-06 15:43 | 44.13385 | 21.28217 | 35928 ft | 431 kts | 322° |
| 2026-05-06 15:44 | 44.18078 | 21.23680 | 35929 ft | 431 kts | 322° |
| 2026-05-06 15:44 | 44.22971 | 21.18941 | 35923 ft | 431 kts | 322° |
| 2026-05-06 15:45 | 44.27902 | 21.14155 | 35930 ft | 431 kts | 322° |
| 2026-05-06 15:45 | 44.32832 | 21.09360 | 35922 ft | 431 kts | 322° |
| 2026-05-06 15:46 | 44.37753 | 21.04564 | 35923 ft | 431 kts | 322° |
| 2026-05-06 15:46 | 44.42672 | 20.99760 | 35931 ft | 431 kts | 322° |
| 2026-05-06 15:47 | 44.47584 | 20.94951 | 35929 ft | 431 kts | 322° |
| 2026-05-06 15:47 | 44.52495 | 20.90135 | 35926 ft | 431 kts | 322° |
| 2026-05-06 15:48 | 44.57377 | 20.85337 | 35923 ft | 431 kts | 322° |
| 2026-05-06 15:48 | 44.62289 | 20.80498 | 35933 ft | 431 kts | 322° |
| 2026-05-06 15:49 | 44.67200 | 20.75652 | 35929 ft | 431 kts | 321° |
| 2026-05-06 15:49 | 44.72097 | 20.70807 | 35926 ft | 430 kts | 321° |
| 2026-05-06 15:50 | 44.76994 | 20.65954 | 35927 ft | 430 kts | 321° |
| 2026-05-06 15:50 | 44.81893 | 20.61088 | 35920 ft | 430 kts | 321° |
| 2026-05-06 15:51 | 44.86794 | 20.56210 | 35916 ft | 431 kts | 321° |
| 2026-05-06 15:51 | 44.91673 | 20.51343 | 35918 ft | 432 kts | 321° |
| 2026-05-06 15:52 | 44.96582 | 20.46435 | 35916 ft | 432 kts | 321° |
| 2026-05-06 15:52 | 45.01491 | 20.41518 | 35931 ft | 432 kts | 321° |
| 2026-05-06 15:53 | 45.06393 | 20.36597 | 35928 ft | 432 kts | 321° |
| 2026-05-06 15:53 | 45.11302 | 20.31657 | 35927 ft | 433 kts | 321° |
| 2026-05-06 15:54 | 45.16220 | 20.26700 | 35931 ft | 433 kts | 321° |
| 2026-05-06 15:54 | 45.21112 | 20.21756 | 35926 ft | 432 kts | 321° |
| 2026-05-06 15:55 | 45.25974 | 20.16833 | 35927 ft | 432 kts | 321° |
| 2026-05-06 15:55 | 45.30889 | 20.11913 | 35918 ft | 434 kts | 326° |
| 2026-05-06 15:56 | 45.36244 | 20.07834 | 35909 ft | 437 kts | 327° |
| 2026-05-06 15:56 | 45.41562 | 20.03611 | 35928 ft | 437 kts | 326° |
| 2026-05-06 15:57 | 45.46849 | 19.99368 | 35918 ft | 436 kts | 326° |
| 2026-05-06 15:57 | 45.52101 | 19.95142 | 35919 ft | 436 kts | 326° |
| 2026-05-06 15:58 | 45.57376 | 19.90888 | 35915 ft | 436 kts | 326° |
| 2026-05-06 15:58 | 45.62669 | 19.86610 | 35916 ft | 437 kts | 326° |
| 2026-05-06 15:59 | 45.67962 | 19.82322 | 35913 ft | 437 kts | 326° |
| 2026-05-06 15:59 | 45.73248 | 19.78032 | 35914 ft | 437 kts | 326° |
| 2026-05-06 16:00 | 45.78530 | 19.73734 | 35917 ft | 437 kts | 326° |
| 2026-05-06 16:00 | 45.83817 | 19.69422 | 35918 ft | 437 kts | 326° |
| 2026-05-06 16:01 | 45.89099 | 19.65106 | 35926 ft | 436 kts | 326° |
| 2026-05-06 16:01 | 45.94363 | 19.60795 | 35913 ft | 435 kts | 326° |
| 2026-05-06 16:02 | 45.99619 | 19.56481 | 35906 ft | 435 kts | 325° |
| 2026-05-06 16:02 | 46.04849 | 19.52179 | 35910 ft | 435 kts | 325° |
| 2026-05-06 16:03 | 46.10101 | 19.47849 | 35906 ft | 435 kts | 325° |
| 2026-05-06 16:03 | 46.15362 | 19.43501 | 35910 ft | 435 kts | 325° |
| 2026-05-06 16:04 | 46.20625 | 19.39144 | 35912 ft | 437 kts | 325° |
| 2026-05-06 16:04 | 46.25893 | 19.34771 | 35907 ft | 436 kts | 325° |
| 2026-05-06 16:05 | 46.31160 | 19.30390 | 35904 ft | 436 kts | 325° |
| 2026-05-06 16:05 | 46.36423 | 19.26003 | 35904 ft | 436 kts | 325° |
| 2026-05-06 16:06 | 46.41642 | 19.21642 | 35910 ft | 435 kts | 325° |
| 2026-05-06 16:06 | 46.46915 | 19.17226 | 35903 ft | 439 kts | 325° |
| 2026-05-06 16:07 | 46.52208 | 19.12784 | 35900 ft | 439 kts | 325° |
| 2026-05-06 16:07 | 46.57249 | 19.08544 | 35900 ft | 439 kts | 325° |
| 2026-05-06 16:08 | 46.62540 | 19.04082 | 35909 ft | 439 kts | 324° |
| 2026-05-06 16:08 | 46.67808 | 18.99632 | 35894 ft | 437 kts | 325° |
| 2026-05-06 16:09 | 46.73071 | 18.95174 | 35126 ft | 438 kts | 324° |
| 2026-05-06 16:09 | 46.75709 | 18.92936 | 34366 ft | 440 kts | 324° |
| 2026-05-06 16:09 | 46.78356 | 18.90690 | 33654 ft | 440 kts | 324° |
| 2026-05-06 16:10 | 46.81000 | 18.88443 | 32865 ft | 441 kts | 325° |
| 2026-05-06 16:10 | 46.83651 | 18.86186 | 32089 ft | 441 kts | 325° |
| 2026-05-06 16:10 | 46.86307 | 18.83920 | 31334 ft | 442 kts | 325° |
| 2026-05-06 16:10 | 46.88935 | 18.81678 | 30621 ft | 442 kts | 325° |
| 2026-05-06 16:11 | 46.91583 | 18.79415 | 30019 ft | 440 kts | 325° |
| 2026-05-06 16:11 | 46.94213 | 18.77170 | 29382 ft | 436 kts | 326° |
| 2026-05-06 16:11 | 46.96844 | 18.75001 | 28925 ft | 429 kts | 326° |
| 2026-05-06 16:11 | 46.99421 | 18.72873 | 28532 ft | 421 kts | 326° |
| 2026-05-06 16:12 | 47.01995 | 18.70739 | 28307 ft | 430 kts | 326° |
| 2026-05-06 16:12 | 47.04627 | 18.68554 | 28045 ft | 439 kts | 326° |
| 2026-05-06 16:12 | 47.07297 | 18.66336 | 27809 ft | 441 kts | 326° |
| 2026-05-06 16:12 | 47.09972 | 18.64109 | 27586 ft | 441 kts | 326° |
| 2026-05-06 16:13 | 47.12645 | 18.61882 | 27366 ft | 439 kts | 326° |
| 2026-05-06 16:13 | 47.15289 | 18.59677 | 27077 ft | 437 kts | 326° |
| 2026-05-06 16:13 | 47.17920 | 18.57480 | 26510 ft | 433 kts | 326° |
| 2026-05-06 16:13 | 47.20536 | 18.55293 | 25907 ft | 430 kts | 326° |
| 2026-05-06 16:14 | 47.23128 | 18.53123 | 25333 ft | 427 kts | 326° |
| 2026-05-06 16:14 | 47.25707 | 18.50962 | 24760 ft | 425 kts | 327° |
| 2026-05-06 16:14 | 47.28235 | 18.48841 | 24216 ft | 424 kts | 327° |
| 2026-05-06 16:14 | 47.30790 | 18.46696 | 23650 ft | 422 kts | 327° |
| 2026-05-06 16:15 | 47.33375 | 18.44522 | 23002 ft | 421 kts | 327° |
| 2026-05-06 16:15 | 47.35883 | 18.42411 | 22415 ft | 418 kts | 327° |
| 2026-05-06 16:15 | 47.38398 | 18.40292 | 21866 ft | 415 kts | 327° |
| 2026-05-06 16:15 | 47.40893 | 18.38187 | 21318 ft | 412 kts | 327° |
| 2026-05-06 16:16 | 47.43371 | 18.36095 | 20789 ft | 409 kts | 327° |
| 2026-05-06 16:16 | 47.45835 | 18.34011 | 20254 ft | 406 kts | 327° |
| 2026-05-06 16:16 | 47.48284 | 18.31938 | 19742 ft | 403 kts | 327° |
| 2026-05-06 16:16 | 47.50718 | 18.29876 | 19223 ft | 401 kts | 327° |
| 2026-05-06 16:17 | 47.53133 | 18.27828 | 18719 ft | 399 kts | 327° |
| 2026-05-06 16:17 | 47.55539 | 18.25784 | 18224 ft | 398 kts | 327° |
| 2026-05-06 16:17 | 47.57907 | 18.23771 | 17664 ft | 396 kts | 327° |
| 2026-05-06 16:17 | 47.60285 | 18.21747 | 17147 ft | 393 kts | 326° |
| 2026-05-06 16:18 | 47.62648 | 18.19735 | 16669 ft | 390 kts | 326° |
| 2026-05-06 16:18 | 47.64993 | 18.17736 | 16186 ft | 387 kts | 326° |
| 2026-05-06 16:18 | 47.67315 | 18.15753 | 15719 ft | 384 kts | 326° |
| 2026-05-06 16:18 | 47.69622 | 18.13783 | 15260 ft | 381 kts | 326° |
| 2026-05-06 16:19 | 47.71917 | 18.11820 | 14797 ft | 379 kts | 326° |
| 2026-05-06 16:19 | 47.74197 | 18.09867 | 14340 ft | 377 kts | 326° |
| 2026-05-06 16:19 | 47.76463 | 18.07925 | 13902 ft | 375 kts | 326° |
| 2026-05-06 16:19 | 47.78714 | 18.05994 | 13434 ft | 373 kts | 326° |
| 2026-05-06 16:20 | 47.80953 | 18.04072 | 12954 ft | 370 kts | 326° |
| 2026-05-06 16:20 | 47.83148 | 18.02184 | 12515 ft | 367 kts | 326° |
| 2026-05-06 16:20 | 47.85353 | 18.00286 | 12093 ft | 364 kts | 326° |
| 2026-05-06 16:20 | 47.87542 | 17.98401 | 11649 ft | 362 kts | 326° |
| 2026-05-06 16:21 | 47.89709 | 17.96534 | 11224 ft | 359 kts | 326° |
| 2026-05-06 16:21 | 47.91851 | 17.94685 | 10963 ft | 351 kts | 326° |
| 2026-05-06 16:21 | 47.93934 | 17.92886 | 10800 ft | 338 kts | 326° |
| 2026-05-06 16:21 | 47.95905 | 17.91182 | 10625 ft | 318 kts | 325° |
| 2026-05-06 16:22 | 47.97772 | 17.89566 | 10496 ft | 304 kts | 325° |
| 2026-05-06 16:22 | 47.99573 | 17.88006 | 10373 ft | 295 kts | 325° |
| 2026-05-06 16:22 | 48.01315 | 17.86495 | 10301 ft | 283 kts | 325° |
| 2026-05-06 16:22 | 48.02429 | 17.85530 | 10240 ft | 276 kts | 324° |
| 2026-05-06 16:23 | 48.04065 | 17.84110 | 10140 ft | 269 kts | 324° |
| 2026-05-06 16:23 | 48.05701 | 17.82687 | 10031 ft | 277 kts | 325° |
| 2026-05-06 16:23 | 48.07390 | 17.81219 | 9776 ft | 284 kts | 325° |
| 2026-05-06 16:23 | 48.09104 | 17.79728 | 9423 ft | 286 kts | 325° |
| 2026-05-06 16:24 | 48.10827 | 17.78228 | 9089 ft | 286 kts | 324° |
| 2026-05-06 16:24 | 48.12543 | 17.76733 | 8781 ft | 284 kts | 324° |
| 2026-05-06 16:24 | 48.14248 | 17.75248 | 8489 ft | 283 kts | 324° |
| 2026-05-06 16:24 | 48.15953 | 17.73759 | 8180 ft | 282 kts | 324° |
| 2026-05-06 16:25 | 48.17645 | 17.72281 | 7874 ft | 281 kts | 324° |
| 2026-05-06 16:25 | 48.19330 | 17.70809 | 7572 ft | 280 kts | 324° |
| 2026-05-06 16:25 | 48.21006 | 17.69342 | 7260 ft | 278 kts | 324° |
| 2026-05-06 16:25 | 48.22670 | 17.67886 | 6984 ft | 275 kts | 324° |
| 2026-05-06 16:26 | 48.24291 | 17.66467 | 6711 ft | 265 kts | 324° |
| 2026-05-06 16:26 | 48.25866 | 17.65085 | 6419 ft | 261 kts | 324° |
| 2026-05-06 16:26 | 48.27411 | 17.63731 | 6146 ft | 252 kts | 323° |
| 2026-05-06 16:26 | 48.28879 | 17.62444 | 5998 ft | 236 kts | 323° |
| 2026-05-06 16:27 | 48.30252 | 17.61240 | 5871 ft | 220 kts | 322° |
| 2026-05-06 16:27 | 48.31499 | 17.60118 | 5740 ft | 203 kts | 315° |
| 2026-05-06 16:27 | 48.32503 | 17.58753 | 5534 ft | 189 kts | 305° |
| 2026-05-06 16:27 | 48.33422 | 17.57331 | 5339 ft | 191 kts | 304° |
| 2026-05-06 16:28 | 48.34357 | 17.55883 | 5178 ft | 194 kts | 304° |
| 2026-05-06 16:28 | 48.35300 | 17.54423 | 4981 ft | 194 kts | 304° |
| 2026-05-06 16:28 | 48.36150 | 17.52895 | 4757 ft | 184 kts | 285° |
| 2026-05-06 16:28 | 48.36353 | 17.51127 | 4499 ft | 166 kts | 253° |
| 2026-05-06 16:29 | 48.35962 | 17.49565 | 4300 ft | 158 kts | 233° |
| 2026-05-06 16:29 | 48.35323 | 17.48235 | 4166 ft | 156 kts | 226° |
| 2026-05-06 16:29 | 48.34615 | 17.46999 | 4068 ft | 156 kts | 223° |
| 2026-05-06 16:29 | 48.33876 | 17.45806 | 3990 ft | 156 kts | 222° |
| 2026-05-06 16:30 | 48.33115 | 17.44638 | 3897 ft | 155 kts | 221° |
| 2026-05-06 16:30 | 48.32607 | 17.43876 | 3824 ft | 155 kts | 220° |
| 2026-05-06 16:30 | 48.31584 | 17.42369 | 3694 ft | 156 kts | 219° |
| 2026-05-06 16:30 | 48.30804 | 17.41226 | 3601 ft | 157 kts | 220° |
| 2026-05-06 16:31 | 48.30016 | 17.40079 | 3499 ft | 158 kts | 220° |
| 2026-05-06 16:31 | 48.29224 | 17.38930 | 3337 ft | 158 kts | 219° |
| 2026-05-06 16:31 | 48.28444 | 17.37797 | 3181 ft | 152 kts | 219° |
| 2026-05-06 16:31 | 48.27698 | 17.36715 | 3019 ft | 147 kts | 218° |
| 2026-05-06 16:32 | 48.26963 | 17.35649 | 2857 ft | 146 kts | 217° |
| 2026-05-06 16:32 | 48.26233 | 17.34593 | 2661 ft | 146 kts | 217° |
| 2026-05-06 16:32 | 48.25510 | 17.33548 | 2473 ft | 146 kts | 217° |
| 2026-05-06 16:32 | 48.24781 | 17.32493 | 2286 ft | 144 kts | 218° |
| 2026-05-06 16:33 | 48.24069 | 17.31464 | 2089 ft | 145 kts | 218° |
| 2026-05-06 16:33 | 48.23360 | 17.30438 | 1909 ft | 138 kts | 218° |
| 2026-05-06 16:33 | 48.22688 | 17.29468 | 1723 ft | 134 kts | 218° |
| 2026-05-06 16:34 | 48.21394 | 17.27603 | 1373 ft | 130 kts | 216° |
| 2026-05-06 16:34 | 48.20737 | 17.26658 | 1229 ft | 134 kts | 219° |
| 2026-05-06 16:34 | 48.20062 | 17.25625 | 1009 ft | 145 kts | 223° |
| 2026-05-06 16:34 | 48.19378 | 17.24568 | 892 ft | 137 kts | 216° |
| 2026-05-06 16:35 | 48.19227 | 17.24365 | 862 ft | 136 kts | 214° |
| 2026-05-06 16:35 | 48.18613 | 17.23598 | 686 ft | 138 kts | 217° |
| 2026-05-06 16:35 | 48.17935 | 17.22588 | 503 ft | 133 kts | 214° |
| 2026-05-06 16:35 | 48.17310 | 17.21718 | 425 ft | 110 kts | 221° |
| 2026-05-06 16:36 | 48.16913 | 17.21153 | 421 ft | 68 kts | 224° |
| 2026-05-06 16:36 | 48.16599 | 17.20705 | 431 ft | 33 kts | 226° |
| 2026-05-06 16:36 | 48.16568 | 17.20587 | 432 ft | 9 kts | 316° |
| 2026-05-06 16:36 | 48.16614 | 17.20515 | 423 ft | 10 kts | 316° |
| 2026-05-06 16:37 | 48.16665 | 17.20437 | 431 ft | 11 kts | 311° |
| 2026-05-06 16:37 | 48.16674 | 17.20422 | 435 ft | 0 kts | 312° |
| 2026-05-06 16:40 | 48.16684 | 17.20405 | 426 ft | 7 kts | 312° |
| 2026-05-06 16:40 | 48.16740 | 17.20316 | 426 ft | 14 kts | 317° |
| 2026-05-06 16:41 | 48.16819 | 17.20207 | 426 ft | 16 kts | 315° |
| 2026-05-06 16:41 | 48.16871 | 17.20145 | 434 ft | 6 kts | 10° |
| 2026-05-06 16:41 | 48.16920 | 17.20215 | 434 ft | 9 kts | 45° |
| 2026-05-06 16:41 | 48.16961 | 17.20194 | 434 ft | 7 kts | 314° |
| 2026-05-06 16:42 | 48.16969 | 17.20182 | 434 ft | 0 kts | 315° |
| 2026-05-06 16:43 | 48.16973 | 17.20175 | 434 ft | 0 kts | 314° |